createdAt,value
2022-09-02T00:00:00.884Z,16.00
2022-09-02T00:01:00.886Z,16.01
2022-09-02T00:02:01.038Z,16.00
2022-09-02T00:03:00.986Z,16.00
2022-09-02T00:04:00.839Z,16.00
2022-09-02T00:05:00.840Z,15.97
2022-09-02T00:06:00.829Z,16.00
2022-09-02T00:07:00.807Z,15.97
2022-09-02T00:08:00.805Z,15.97
2022-09-02T00:09:00.797Z,16.00
2022-09-02T00:10:00.776Z,15.97
2022-09-02T00:11:00.769Z,16.00
2022-09-02T00:12:00.755Z,15.97
2022-09-02T00:13:00.757Z,16.00
2022-09-02T00:14:00.766Z,16.00
2022-09-02T00:15:00.721Z,16.00
2022-09-02T00:16:00.709Z,16.01
2022-09-02T00:17:00.999Z,16.01
2022-09-02T00:18:00.697Z,16.01
2022-09-02T00:19:00.706Z,16.02
2022-09-02T00:20:00.665Z,16.02
2022-09-02T00:21:00.661Z,16.04
2022-09-02T00:22:00.641Z,16.04
2022-09-02T00:23:00.631Z,16.05
2022-09-02T00:24:00.611Z,16.04
2022-09-02T00:25:00.618Z,16.05
2022-09-02T00:26:00.587Z,16.05
2022-09-02T00:27:00.586Z,16.07
2022-09-02T00:28:00.598Z,16.05
2022-09-02T00:29:00.572Z,16.05
2022-09-02T00:30:00.560Z,16.05
2022-09-02T00:31:00.557Z,16.05
2022-09-02T00:32:00.572Z,16.05
2022-09-02T00:33:00.522Z,16.05
2022-09-02T00:34:00.498Z,16.07
2022-09-02T00:35:00.499Z,16.07
2022-09-02T00:36:00.490Z,16.07
2022-09-02T00:37:00.488Z,16.07
2022-09-02T00:38:00.473Z,16.07
2022-09-02T00:39:00.462Z,16.07
2022-09-02T00:40:00.435Z,16.08
2022-09-02T00:41:00.431Z,16.07
2022-09-02T00:42:00.431Z,16.09
2022-09-02T00:43:00.412Z,16.09
2022-09-02T00:44:00.403Z,16.09
2022-09-02T00:45:00.399Z,16.09
2022-09-02T00:46:00.443Z,16.09
2022-09-02T00:47:00.489Z,16.12
2022-09-02T00:48:00.353Z,16.09
2022-09-02T00:49:00.342Z,16.08
2022-09-02T00:50:00.562Z,16.11
2022-09-02T00:51:00.346Z,16.11
2022-09-02T00:52:00.310Z,16.12
2022-09-02T00:53:00.290Z,16.11
2022-09-02T00:54:00.283Z,16.09
2022-09-02T00:55:00.297Z,16.09
2022-09-02T00:56:00.256Z,16.09
2022-09-02T00:57:00.250Z,16.11
2022-09-02T00:58:00.248Z,16.11
2022-09-02T00:59:00.231Z,16.09
2022-09-02T01:00:00.256Z,16.11
2022-09-02T01:01:00.354Z,16.09
2022-09-02T01:02:00.396Z,16.11
2022-09-02T01:03:00.184Z,16.09
2022-09-02T01:04:00.177Z,16.09
2022-09-02T01:05:00.200Z,16.07
2022-09-02T01:06:00.177Z,16.04
2022-09-02T01:07:00.146Z,16.02
2022-09-02T01:08:00.147Z,16.01
2022-09-02T01:09:00.247Z,16.01
2022-09-02T01:10:00.126Z,16.01
2022-09-02T01:11:00.318Z,16.02
2022-09-02T01:12:00.080Z,16.02
2022-09-02T01:13:00.087Z,16.02
2022-09-02T01:14:00.079Z,15.97
2022-09-02T01:15:00.053Z,16.00
2022-09-02T01:16:00.135Z,16.00
2022-09-02T01:17:00.030Z,16.01
2022-09-02T01:18:00.022Z,16.01
2022-09-02T01:19:00.008Z,16.01
2022-09-02T01:19:59.998Z,16.00
2022-09-02T01:20:59.987Z,16.02
2022-09-02T01:21:59.977Z,16.01
2022-09-02T01:22:59.960Z,16.01
2022-09-02T01:23:59.950Z,16.02
2022-09-02T01:24:59.947Z,16.04
2022-09-02T01:25:59.940Z,16.04
2022-09-02T01:26:59.935Z,16.04
2022-09-02T01:27:59.910Z,16.02
2022-09-02T01:28:59.891Z,16.02
2022-09-02T01:29:59.885Z,16.01
2022-09-02T01:30:59.874Z,16.01
2022-09-02T01:31:59.987Z,16.01
2022-09-02T01:32:59.849Z,16.00
2022-09-02T01:33:59.844Z,16.00
2022-09-02T01:34:59.821Z,16.00
2022-09-02T01:35:59.823Z,15.96
2022-09-02T01:36:59.814Z,15.97
2022-09-02T01:37:59.801Z,15.94
2022-09-02T01:38:59.779Z,15.96
2022-09-02T01:39:59.785Z,15.96
2022-09-02T01:40:59.758Z,15.94
2022-09-02T01:41:59.759Z,15.94
2022-09-02T01:42:59.751Z,15.96
2022-09-02T01:43:59.719Z,15.96
2022-09-02T01:44:59.714Z,15.96
2022-09-02T01:45:59.710Z,15.97
2022-09-02T01:46:59.743Z,15.97
2022-09-02T01:47:59.698Z,16.00
2022-09-02T01:48:59.663Z,15.97
2022-09-02T01:49:59.659Z,15.97
2022-09-02T01:50:59.643Z,15.96
2022-09-02T01:51:59.630Z,15.96
2022-09-02T01:52:59.667Z,15.96
2022-09-02T01:53:59.650Z,15.94
2022-09-02T01:54:59.608Z,15.93
2022-09-02T01:55:59.591Z,15.92
2022-09-02T01:56:59.578Z,15.92
2022-09-02T01:57:59.570Z,15.92
2022-09-02T01:58:59.564Z,15.87
2022-09-02T01:59:59.559Z,15.87
2022-09-02T02:00:59.584Z,15.84
2022-09-02T02:01:59.585Z,15.80
2022-09-02T02:02:59.508Z,15.78
2022-09-02T02:03:59.502Z,15.75
2022-09-02T02:04:59.515Z,15.75
2022-09-02T02:05:59.512Z,15.74
2022-09-02T02:06:59.463Z,15.71
2022-09-02T02:07:59.465Z,15.74
2022-09-02T02:08:59.505Z,15.72
2022-09-02T02:09:59.442Z,15.71
2022-09-02T02:10:59.452Z,15.71
2022-09-02T02:11:59.409Z,15.69
2022-09-02T02:12:59.404Z,15.69
2022-09-02T02:13:59.416Z,15.68
2022-09-02T02:14:59.384Z,15.68
2022-09-02T02:15:59.450Z,15.67
2022-09-02T02:16:59.367Z,15.67
2022-09-02T02:17:59.348Z,15.64
2022-09-02T02:18:59.333Z,15.62
2022-09-02T02:19:59.329Z,15.64
2022-09-02T02:20:59.329Z,15.60
2022-09-02T02:21:59.310Z,15.59
2022-09-02T02:22:59.294Z,15.59
2022-09-02T02:23:59.278Z,15.59
2022-09-02T02:24:59.276Z,15.57
2022-09-02T02:25:59.277Z,15.57
2022-09-02T02:26:59.249Z,15.57
2022-09-02T02:27:59.242Z,15.54
2022-09-02T02:28:59.223Z,15.54
2022-09-02T02:29:59.209Z,15.51
2022-09-02T02:30:59.225Z,15.50
2022-09-02T02:31:59.205Z,15.50
2022-09-02T02:32:59.208Z,15.50
2022-09-02T02:33:59.174Z,15.49
2022-09-02T02:34:59.162Z,15.47
2022-09-02T02:35:59.154Z,15.46
2022-09-02T02:36:59.160Z,15.44
2022-09-02T02:37:59.147Z,15.44
2022-09-02T02:38:59.150Z,15.43
2022-09-02T02:39:59.116Z,15.41
2022-09-02T02:40:59.084Z,15.41
2022-09-02T02:41:59.087Z,15.39
2022-09-02T02:42:59.078Z,15.39
2022-09-02T02:43:59.060Z,15.38
2022-09-02T02:44:59.053Z,15.39
2022-09-02T02:45:59.054Z,15.38
2022-09-02T02:46:59.071Z,15.36
2022-09-02T02:47:59.019Z,15.35
2022-09-02T02:48:59.011Z,15.35
2022-09-02T02:49:58.999Z,15.32
2022-09-02T02:50:58.982Z,15.32
2022-09-02T02:51:58.978Z,15.32
2022-09-02T02:52:58.972Z,15.31
2022-09-02T02:53:59.181Z,15.29
2022-09-02T02:54:58.947Z,15.27
2022-09-02T02:55:58.949Z,15.27
2022-09-02T02:56:58.931Z,15.20
2022-09-02T02:57:58.962Z,15.20
2022-09-02T02:58:58.911Z,15.19
2022-09-02T02:59:58.888Z,15.16
2022-09-02T03:00:58.869Z,15.11
2022-09-02T03:01:59.050Z,15.10
2022-09-02T03:02:58.978Z,15.07
2022-09-02T03:03:58.873Z,15.06
2022-09-02T03:04:58.842Z,15.03
2022-09-02T03:05:58.829Z,15.02
2022-09-02T03:06:58.821Z,15.02
2022-09-02T03:07:58.806Z,15.01
2022-09-02T03:08:58.796Z,14.98
2022-09-02T03:09:58.785Z,14.96
2022-09-02T03:10:58.776Z,14.95
2022-09-02T03:11:58.759Z,14.92
2022-09-02T03:12:58.746Z,14.91
2022-09-02T03:13:58.743Z,14.88
2022-09-02T03:14:58.751Z,14.88
2022-09-02T03:15:58.766Z,14.86
2022-09-02T03:16:58.698Z,14.83
2022-09-02T03:17:58.727Z,14.83
2022-09-02T03:18:58.683Z,14.81
2022-09-02T03:19:58.686Z,14.81
2022-09-02T03:20:58.663Z,14.80
2022-09-02T03:21:58.653Z,14.78
2022-09-02T03:22:58.636Z,14.78
2022-09-02T03:23:58.633Z,14.77
2022-09-02T03:24:58.639Z,14.75
2022-09-02T03:25:58.618Z,14.73
2022-09-02T03:26:58.590Z,14.73
2022-09-02T03:27:58.587Z,14.73
2022-09-02T03:28:58.565Z,14.73
2022-09-02T03:29:58.584Z,14.73
2022-09-02T03:30:58.598Z,14.73
2022-09-02T03:31:58.550Z,14.72
2022-09-02T03:33:03.618Z,14.72
2022-09-02T03:33:58.527Z,14.69
2022-09-02T03:34:58.511Z,14.68
2022-09-02T03:35:58.516Z,14.65
2022-09-02T03:36:58.489Z,14.64
2022-09-02T03:37:58.489Z,14.64
2022-09-02T03:38:58.466Z,14.62
2022-09-02T03:39:58.460Z,14.60
2022-09-02T03:40:58.463Z,14.58
2022-09-02T03:41:58.455Z,14.58
2022-09-02T03:43:00.361Z,14.54
2022-09-02T03:43:58.412Z,14.52
2022-09-02T03:44:58.395Z,14.51
2022-09-02T03:45:58.467Z,14.50
2022-09-02T03:46:58.386Z,14.47
2022-09-02T03:47:58.372Z,14.46
2022-09-02T03:48:58.371Z,14.43
2022-09-02T03:49:58.339Z,14.43
2022-09-02T03:50:58.339Z,14.40
2022-09-02T03:51:58.339Z,14.39
2022-09-02T03:52:58.320Z,14.40
2022-09-02T03:53:58.311Z,14.40
2022-09-02T03:54:58.281Z,14.39
2022-09-02T03:55:58.277Z,14.39
2022-09-02T03:56:58.256Z,14.40
2022-09-02T03:57:58.267Z,14.39
2022-09-02T03:58:58.255Z,14.39
2022-09-02T03:59:58.233Z,14.37
2022-09-02T04:00:58.229Z,14.39
2022-09-02T04:01:58.324Z,14.37
2022-09-02T04:02:58.255Z,14.37
2022-09-02T04:03:58.268Z,14.37
2022-09-02T04:04:58.172Z,14.37
2022-09-02T04:05:58.169Z,14.35
2022-09-02T04:06:58.146Z,14.33
2022-09-02T04:07:58.143Z,14.29
2022-09-02T04:08:58.121Z,14.29
2022-09-02T04:09:58.132Z,14.28
2022-09-02T04:10:58.109Z,14.27
2022-09-02T04:11:58.102Z,14.25
2022-09-02T04:12:58.091Z,14.24
2022-09-02T04:13:58.078Z,14.24
2022-09-02T04:14:58.088Z,14.25
2022-09-02T04:16:01.683Z,14.22
2022-09-02T04:16:58.041Z,14.22
2022-09-02T04:17:58.044Z,14.22
2022-09-02T04:18:58.010Z,14.21
2022-09-02T04:19:58.030Z,14.20
2022-09-02T04:20:58.007Z,14.22
2022-09-02T04:21:58.002Z,14.22
2022-09-02T04:22:57.975Z,14.24
2022-09-02T04:23:57.969Z,14.22
2022-09-02T04:24:57.947Z,14.22
2022-09-02T04:25:57.947Z,14.22
2022-09-02T04:27:01.991Z,14.22
2022-09-02T04:27:57.922Z,14.22
2022-09-02T04:28:57.915Z,14.22
2022-09-02T04:29:57.904Z,14.21
2022-09-02T04:30:57.965Z,14.20
2022-09-02T04:31:57.873Z,14.20
2022-09-02T04:32:57.872Z,14.20
2022-09-02T04:33:57.850Z,14.18
2022-09-02T04:34:57.852Z,14.15
2022-09-02T04:35:57.863Z,14.14
2022-09-02T04:36:57.811Z,14.12
2022-09-02T04:37:57.855Z,14.09
2022-09-02T04:38:57.792Z,14.06
2022-09-02T04:39:57.793Z,14.06
2022-09-02T04:40:57.801Z,14.04
2022-09-02T04:41:57.799Z,14.02
2022-09-02T04:42:57.777Z,14.03
2022-09-02T04:43:57.750Z,14.02
2022-09-02T04:44:57.738Z,14.00
2022-09-02T04:45:57.788Z,14.03
2022-09-02T04:46:57.736Z,14.02
2022-09-02T04:47:57.687Z,14.00
2022-09-02T04:48:57.691Z,14.03
2022-09-02T04:49:57.677Z,14.04
2022-09-02T04:50:57.656Z,14.03
2022-09-02T04:51:57.670Z,14.07
2022-09-02T04:52:57.651Z,14.10
2022-09-02T04:53:57.638Z,14.14
2022-09-02T04:54:57.684Z,14.15
2022-09-02T04:55:58.301Z,14.17
2022-09-02T04:56:57.599Z,14.18
2022-09-02T04:57:57.595Z,14.18
2022-09-02T04:58:57.576Z,14.21
2022-09-02T04:59:57.560Z,14.24
2022-09-02T05:00:57.555Z,14.24
2022-09-02T05:01:57.611Z,14.27
2022-09-02T05:02:57.720Z,14.27
2022-09-02T05:03:57.533Z,14.29
2022-09-02T05:04:57.551Z,14.32
2022-09-02T05:05:57.504Z,14.32
2022-09-02T05:06:57.498Z,14.29
2022-09-02T05:07:57.498Z,14.29
2022-09-02T05:08:57.488Z,14.32
2022-09-02T05:09:57.467Z,14.33
2022-09-02T05:10:57.454Z,14.36
2022-09-02T05:11:57.445Z,14.39
2022-09-02T05:12:57.427Z,14.40
2022-09-02T05:13:57.443Z,14.40
2022-09-02T05:14:57.484Z,14.43
2022-09-02T05:15:57.449Z,14.45
2022-09-02T05:16:57.400Z,14.47
2022-09-02T05:17:57.387Z,14.50
2022-09-02T05:18:57.345Z,14.54
2022-09-02T05:19:57.452Z,14.57
2022-09-02T05:20:57.348Z,14.58
2022-09-02T05:21:57.378Z,14.58
2022-09-02T05:22:57.319Z,14.64
2022-09-02T05:23:57.320Z,14.64
2022-09-02T05:24:57.411Z,14.65
2022-09-02T05:25:57.309Z,14.68
2022-09-02T05:26:57.368Z,14.72
2022-09-02T05:27:57.280Z,14.72
2022-09-02T05:28:57.320Z,14.73
2022-09-02T05:29:57.234Z,14.75
2022-09-02T05:30:57.294Z,14.75
2022-09-02T05:31:57.234Z,14.75
2022-09-02T05:32:57.235Z,14.77
2022-09-02T05:33:57.261Z,14.77
2022-09-02T05:34:57.187Z,14.78
2022-09-02T05:35:57.218Z,14.80
2022-09-02T05:36:57.178Z,14.80
2022-09-02T05:38:00.748Z,14.81
2022-09-02T05:38:57.151Z,14.81
2022-09-02T05:39:57.176Z,14.86
2022-09-02T05:40:57.241Z,14.86
2022-09-02T05:41:57.285Z,14.91
2022-09-02T05:42:57.091Z,14.88
2022-09-02T05:43:57.084Z,14.91
2022-09-02T05:44:57.073Z,14.92
2022-09-02T05:45:57.152Z,14.94
2022-09-02T05:46:57.051Z,14.96
2022-09-02T05:47:57.028Z,14.96
2022-09-02T05:48:57.027Z,14.98
2022-09-02T05:49:57.006Z,14.96
2022-09-02T05:50:57.730Z,14.99
2022-09-02T05:51:56.998Z,15.01
2022-09-02T05:52:56.985Z,15.02
2022-09-02T05:53:56.956Z,15.03
2022-09-02T05:54:57.005Z,15.06
2022-09-02T05:55:56.945Z,15.07
2022-09-02T05:56:56.943Z,15.09
2022-09-02T05:57:56.936Z,15.09
2022-09-02T05:58:56.900Z,15.10
2022-09-02T05:59:56.924Z,15.13
2022-09-02T06:00:56.896Z,15.13
2022-09-02T06:01:56.944Z,15.14
2022-09-02T06:02:56.942Z,15.19
2022-09-02T06:03:56.857Z,15.21
2022-09-02T06:04:56.842Z,15.23
2022-09-02T06:05:56.836Z,15.25
2022-09-02T06:06:56.814Z,15.28
2022-09-02T06:07:56.828Z,15.29
2022-09-02T06:08:56.810Z,15.31
2022-09-02T06:09:56.786Z,15.32
2022-09-02T06:10:56.847Z,15.34
2022-09-02T06:11:56.768Z,15.36
2022-09-02T06:12:56.763Z,15.39
2022-09-02T06:13:56.747Z,15.43
2022-09-02T06:14:56.738Z,15.43
2022-09-02T06:15:56.838Z,15.44
2022-09-02T06:16:56.715Z,15.47
2022-09-02T06:17:56.765Z,15.50
2022-09-02T06:18:56.729Z,15.50
2022-09-02T06:19:56.689Z,15.51
2022-09-02T06:20:56.672Z,15.51
2022-09-02T06:21:56.660Z,15.53
2022-09-02T06:22:56.636Z,15.54
2022-09-02T06:23:56.652Z,15.56
2022-09-02T06:24:56.629Z,15.60
2022-09-02T06:25:56.633Z,15.65
2022-09-02T06:26:56.600Z,15.69
2022-09-02T06:27:56.586Z,15.72
2022-09-02T06:28:56.582Z,15.75
2022-09-02T06:29:56.579Z,15.76
2022-09-02T06:30:56.679Z,15.76
2022-09-02T06:31:56.541Z,15.80
2022-09-02T06:32:56.543Z,15.82
2022-09-02T06:33:56.519Z,15.83
2022-09-02T06:34:56.525Z,15.86
2022-09-02T06:35:56.529Z,15.86
2022-09-02T06:36:56.496Z,15.87
2022-09-02T06:37:56.479Z,15.90
2022-09-02T06:38:56.477Z,15.92
2022-09-02T06:39:56.455Z,15.93
2022-09-02T06:40:56.496Z,15.94
2022-09-02T06:41:56.434Z,15.96
2022-09-02T06:42:56.451Z,15.97
2022-09-02T06:43:56.417Z,16.00
2022-09-02T06:44:56.418Z,16.02
2022-09-02T06:45:56.429Z,16.04
2022-09-02T06:46:56.401Z,16.05
2022-09-02T06:47:56.376Z,16.05
2022-09-02T06:48:56.456Z,16.05
2022-09-02T06:49:56.363Z,16.07
2022-09-02T06:50:56.346Z,16.08
2022-09-02T06:51:56.316Z,16.09
2022-09-02T06:52:56.317Z,16.11
2022-09-02T06:53:56.311Z,16.12
2022-09-02T06:54:56.290Z,16.14
2022-09-02T06:55:56.287Z,16.20
2022-09-02T06:56:56.289Z,16.17
2022-09-02T06:57:56.250Z,16.20
2022-09-02T06:58:56.264Z,16.23
2022-09-02T07:00:02.100Z,16.24
2022-09-02T07:00:56.229Z,16.27
2022-09-02T07:01:56.426Z,16.28
2022-09-02T07:02:56.200Z,16.30
2022-09-02T07:03:56.192Z,16.31
2022-09-02T07:04:57.648Z,16.31
2022-09-02T07:05:56.161Z,16.35
2022-09-02T07:06:56.160Z,16.41
2022-09-02T07:07:56.152Z,16.43
2022-09-02T07:08:56.137Z,16.49
2022-09-02T07:09:56.183Z,16.50
2022-09-02T07:10:56.113Z,16.53
2022-09-02T07:11:56.099Z,16.57
2022-09-02T07:12:56.102Z,16.63
2022-09-02T07:13:56.092Z,16.67
2022-09-02T07:14:56.087Z,16.71
2022-09-02T07:15:56.052Z,16.78
2022-09-02T07:16:56.106Z,16.81
2022-09-02T07:17:56.051Z,16.85
2022-09-02T07:18:56.032Z,16.89
2022-09-02T07:19:56.020Z,16.94
2022-09-02T07:20:56.002Z,16.96
2022-09-02T07:21:55.983Z,17.01
2022-09-02T07:22:55.980Z,17.04
2022-09-02T07:23:55.976Z,17.11
2022-09-02T07:24:55.971Z,17.14
2022-09-02T07:25:55.967Z,17.16
2022-09-02T07:26:56.097Z,17.16
2022-09-02T07:27:55.940Z,17.19
2022-09-02T07:28:55.927Z,17.21
2022-09-02T07:29:55.909Z,17.22
2022-09-02T07:30:59.661Z,17.21
2022-09-02T07:31:55.882Z,17.23
2022-09-02T07:32:55.866Z,17.25
2022-09-02T07:33:55.847Z,17.28
2022-09-02T07:34:55.857Z,17.33
2022-09-02T07:35:56.290Z,17.36
2022-09-02T07:37:00.185Z,17.40
2022-09-02T07:37:55.821Z,17.43
2022-09-02T07:38:55.805Z,17.46
2022-09-02T07:39:55.809Z,17.49
2022-09-02T07:40:56.992Z,17.54
2022-09-02T07:41:55.770Z,17.56
2022-09-02T07:43:59.603Z,17.59
2022-09-02T07:44:55.757Z,17.63
2022-09-02T07:45:55.912Z,17.63
2022-09-02T07:46:55.710Z,17.64
2022-09-02T07:47:55.708Z,17.66
2022-09-02T07:48:55.686Z,17.70
2022-09-02T07:50:55.680Z,17.74
2022-09-02T07:51:55.665Z,17.77
2022-09-02T07:52:55.641Z,17.78
2022-09-02T07:53:55.656Z,17.81
2022-09-02T07:54:55.635Z,17.81
2022-09-02T07:55:55.608Z,17.86
2022-09-02T07:56:55.645Z,17.87
2022-09-02T07:57:55.735Z,17.92
2022-09-02T07:58:55.596Z,17.93
2022-09-02T07:59:55.570Z,17.93
2022-09-02T08:00:55.635Z,17.99
2022-09-02T08:01:55.553Z,18.02
2022-09-02T08:02:55.700Z,18.05
2022-09-02T08:03:55.525Z,18.10
2022-09-02T08:04:55.516Z,18.11
2022-09-02T08:05:55.515Z,18.14
2022-09-02T08:06:55.496Z,18.17
2022-09-02T08:07:55.539Z,18.20
2022-09-02T08:08:55.500Z,18.25
2022-09-02T08:09:55.479Z,18.27
2022-09-02T08:10:55.536Z,18.29
2022-09-02T08:11:55.443Z,18.33
2022-09-02T08:12:55.451Z,18.36
2022-09-02T08:13:55.466Z,18.41
2022-09-02T08:14:55.420Z,18.44
2022-09-02T08:15:55.421Z,18.47
2022-09-02T08:16:55.491Z,18.50
2022-09-02T08:17:55.416Z,18.54
2022-09-02T08:18:55.395Z,18.57
2022-09-02T08:19:55.369Z,18.60
2022-09-02T08:20:55.347Z,18.63
2022-09-02T08:21:55.332Z,18.67
2022-09-02T08:23:05.281Z,18.72
2022-09-02T08:23:55.311Z,18.75
2022-09-02T08:24:55.329Z,18.78
2022-09-02T08:25:55.279Z,18.82
2022-09-02T08:26:55.273Z,18.84
2022-09-02T08:28:55.252Z,18.91
2022-09-02T08:29:55.250Z,18.92
2022-09-02T08:30:55.245Z,18.94
2022-09-02T08:31:55.280Z,18.95
2022-09-02T08:32:55.207Z,18.98
2022-09-02T08:33:55.193Z,19.02
2022-09-02T08:34:55.186Z,19.06
2022-09-02T08:35:55.201Z,19.08
2022-09-02T08:36:56.556Z,19.11
2022-09-02T08:37:55.150Z,19.16
2022-09-02T08:38:55.139Z,19.13
2022-09-02T08:39:55.121Z,19.16
2022-09-02T08:40:55.179Z,19.19
2022-09-02T08:41:55.159Z,19.22
2022-09-02T08:42:55.093Z,19.23
2022-09-02T08:43:55.082Z,19.28
2022-09-02T08:44:55.080Z,19.31
2022-09-02T08:45:55.109Z,19.33
2022-09-02T08:46:55.088Z,19.36
2022-09-02T08:47:55.043Z,19.40
2022-09-02T08:48:55.042Z,19.43
2022-09-02T08:49:55.019Z,19.47
2022-09-02T08:50:55.110Z,19.47
2022-09-02T08:51:55.021Z,19.51
2022-09-02T08:52:55.010Z,19.55
2022-09-02T08:53:54.983Z,19.56
2022-09-02T08:54:54.966Z,19.59
2022-09-02T08:55:54.950Z,19.62
2022-09-02T08:56:54.949Z,19.65
2022-09-02T08:57:54.963Z,19.68
2022-09-02T08:58:56.454Z,19.71
2022-09-02T08:59:54.910Z,19.74
2022-09-02T09:00:54.952Z,19.76
2022-09-02T09:01:54.980Z,19.78
2022-09-02T09:02:54.883Z,19.81
2022-09-02T09:03:54.878Z,19.84
2022-09-02T09:04:54.878Z,19.86
2022-09-02T09:05:54.847Z,19.87
2022-09-02T09:06:54.840Z,19.92
2022-09-02T09:07:54.819Z,19.94
2022-09-02T09:08:54.852Z,19.94
2022-09-02T09:09:54.809Z,19.96
2022-09-02T09:10:54.836Z,19.98
2022-09-02T09:11:54.775Z,19.99
2022-09-02T09:12:54.772Z,20.01
2022-09-02T09:13:54.766Z,20.03
2022-09-02T09:14:54.775Z,20.03
2022-09-02T09:15:54.739Z,20.05
2022-09-02T09:16:54.870Z,20.08
2022-09-02T09:17:54.708Z,20.10
2022-09-02T09:18:54.703Z,20.11
2022-09-02T09:19:54.686Z,20.14
2022-09-02T09:20:54.699Z,20.16
2022-09-02T09:21:54.658Z,20.18
2022-09-02T09:22:54.666Z,20.23
2022-09-02T09:23:54.679Z,20.24
2022-09-02T09:24:54.631Z,20.28
2022-09-02T09:25:54.659Z,20.32
2022-09-02T09:26:54.611Z,20.35
2022-09-02T09:27:54.601Z,20.38
2022-09-02T09:28:54.597Z,20.41
2022-09-02T09:29:54.579Z,20.43
2022-09-02T09:30:54.569Z,20.48
2022-09-02T09:31:54.603Z,20.50
2022-09-02T09:32:54.551Z,20.51
2022-09-02T09:33:54.530Z,20.52
2022-09-02T09:34:54.536Z,20.57
2022-09-02T09:35:54.526Z,20.58
2022-09-02T09:36:54.517Z,20.59
2022-09-02T09:37:54.494Z,20.64
2022-09-02T09:38:54.476Z,20.67
2022-09-02T09:39:54.470Z,20.73
2022-09-02T09:40:54.529Z,20.76
2022-09-02T09:41:54.457Z,20.80
2022-09-02T09:42:54.468Z,20.84
2022-09-02T09:43:54.432Z,20.85
2022-09-02T09:44:54.430Z,20.88
2022-09-02T09:45:54.517Z,20.89
2022-09-02T09:46:54.407Z,20.87
2022-09-02T09:47:57.138Z,20.84
2022-09-02T09:48:54.371Z,20.82
2022-09-02T09:49:54.355Z,20.82
2022-09-02T09:50:54.352Z,20.82
2022-09-02T09:51:54.337Z,20.84
2022-09-02T09:52:54.333Z,20.84
2022-09-02T09:53:54.312Z,20.87
2022-09-02T09:54:54.305Z,20.89
2022-09-02T09:55:54.288Z,20.92
2022-09-02T09:56:54.294Z,20.98
2022-09-02T09:57:54.280Z,21.03
2022-09-02T09:58:54.267Z,21.04
2022-09-02T09:59:54.246Z,21.04
2022-09-02T10:00:54.262Z,21.01
2022-09-02T10:01:54.327Z,20.98
2022-09-02T10:02:54.226Z,20.98
2022-09-02T10:03:54.239Z,20.99
2022-09-02T10:04:54.228Z,20.99
2022-09-02T10:05:54.188Z,20.99
2022-09-02T10:06:54.175Z,21.03
2022-09-02T10:07:54.163Z,21.06
2022-09-02T10:08:54.147Z,21.10
2022-09-02T10:09:54.447Z,21.13
2022-09-02T10:10:54.153Z,21.17
2022-09-02T10:11:54.113Z,21.22
2022-09-02T10:12:54.111Z,21.24
2022-09-02T10:13:54.093Z,21.28
2022-09-02T10:14:54.091Z,21.25
2022-09-02T10:15:54.138Z,21.24
2022-09-02T10:16:54.124Z,21.16
2022-09-02T10:17:54.080Z,21.10
2022-09-02T10:18:54.069Z,21.03
2022-09-02T10:19:54.043Z,20.97
2022-09-02T10:21:54.037Z,20.89
2022-09-02T10:22:59.524Z,20.91
2022-09-02T10:23:53.992Z,20.87
2022-09-02T10:24:53.989Z,20.82
2022-09-02T10:25:53.970Z,20.79
2022-09-02T10:26:53.981Z,20.76
2022-09-02T10:27:53.960Z,20.73
2022-09-02T10:28:53.936Z,20.73
2022-09-02T10:29:53.932Z,20.72
2022-09-02T10:30:53.914Z,20.72
2022-09-02T10:31:53.948Z,20.73
2022-09-02T10:32:53.907Z,20.80
2022-09-02T10:33:53.891Z,20.85
2022-09-02T10:34:53.870Z,20.91
2022-09-02T10:35:53.856Z,20.95
2022-09-02T10:36:53.856Z,20.98
2022-09-02T10:37:53.831Z,21.06
2022-09-02T10:38:53.851Z,21.10
2022-09-02T10:39:53.815Z,21.10
2022-09-02T10:40:53.880Z,21.13
2022-09-02T10:41:53.796Z,21.17
2022-09-02T10:42:53.783Z,21.22
2022-09-02T10:43:56.806Z,21.24
2022-09-02T10:44:57.013Z,21.25
2022-09-02T10:45:53.756Z,21.32
2022-09-02T10:46:53.983Z,21.42
2022-09-02T10:47:53.735Z,21.44
2022-09-02T10:48:53.755Z,21.50
2022-09-02T10:49:53.743Z,21.53
2022-09-02T10:50:53.701Z,21.56
2022-09-02T10:51:53.681Z,21.56
2022-09-02T10:52:53.677Z,21.54
2022-09-02T10:53:53.659Z,21.53
2022-09-02T10:54:53.656Z,21.52
2022-09-02T10:55:53.661Z,21.46
2022-09-02T10:56:53.659Z,21.42
2022-09-02T10:57:53.626Z,21.42
2022-09-02T10:58:53.663Z,21.38
2022-09-02T10:59:53.604Z,21.42
2022-09-02T11:00:53.662Z,21.46
2022-09-02T11:01:53.598Z,21.50
2022-09-02T11:02:53.562Z,21.54
2022-09-02T11:03:53.706Z,21.59
2022-09-02T11:04:55.155Z,21.62
2022-09-02T11:05:53.553Z,21.64
2022-09-02T11:07:08.880Z,21.65
2022-09-02T11:07:53.530Z,21.69
2022-09-02T11:08:53.503Z,21.74
2022-09-02T11:09:53.490Z,21.83
2022-09-02T11:10:53.489Z,21.92
2022-09-02T11:11:55.913Z,22.03
2022-09-02T11:12:53.473Z,22.12
2022-09-02T11:13:53.457Z,22.25
2022-09-02T11:14:53.429Z,22.39
2022-09-02T11:15:53.487Z,22.49
2022-09-02T11:16:53.425Z,22.49
2022-09-02T11:17:53.419Z,22.49
2022-09-02T11:18:53.389Z,22.51
2022-09-02T11:19:53.391Z,22.52
2022-09-02T11:20:53.484Z,22.49
2022-09-02T11:21:53.400Z,22.46
2022-09-02T11:22:54.356Z,22.42
2022-09-02T11:23:53.344Z,22.36
2022-09-02T11:24:53.337Z,22.33
2022-09-02T11:25:53.314Z,22.28
2022-09-02T11:26:53.300Z,22.22
2022-09-02T11:27:53.359Z,22.21
2022-09-02T11:28:53.279Z,22.17
2022-09-02T11:29:53.287Z,22.14
2022-09-02T11:30:53.276Z,22.10
2022-09-02T11:31:53.255Z,22.05
2022-09-02T11:32:53.257Z,22.00
2022-09-02T11:33:53.268Z,21.96
2022-09-02T11:34:53.240Z,21.90
2022-09-02T11:35:53.204Z,21.84
2022-09-02T11:36:53.196Z,21.80
2022-09-02T11:37:53.392Z,21.77
2022-09-02T11:38:53.169Z,21.69
2022-09-02T11:39:59.222Z,21.64
2022-09-02T11:41:53.169Z,21.50
2022-09-02T11:42:53.143Z,21.46
2022-09-02T11:43:53.172Z,21.43
2022-09-02T11:44:53.316Z,21.38
2022-09-02T11:45:53.172Z,21.40
2022-09-02T11:46:53.137Z,21.42
2022-09-02T11:47:53.075Z,21.43
2022-09-02T11:48:53.074Z,21.46
2022-09-02T11:49:53.081Z,21.50
2022-09-02T11:50:53.053Z,21.61
2022-09-02T11:51:53.042Z,21.79
2022-09-02T11:52:53.041Z,21.88
2022-09-02T11:53:54.913Z,21.92
2022-09-02T11:54:53.013Z,22.03
2022-09-02T11:55:52.987Z,22.31
2022-09-02T11:56:52.974Z,22.65
2022-09-02T11:57:52.970Z,23.05
2022-09-02T11:58:52.972Z,23.48
2022-09-02T11:59:52.957Z,23.88
2022-09-02T12:00:52.973Z,24.27
2022-09-02T12:01:52.936Z,24.67
2022-09-02T12:02:52.910Z,25.03
2022-09-02T12:04:27.593Z,25.17
2022-09-02T12:05:00.438Z,25.17
2022-09-02T12:05:53.010Z,25.30
2022-09-02T12:06:52.952Z,25.39
2022-09-02T12:07:52.863Z,25.47
2022-09-02T12:08:52.843Z,25.65
2022-09-02T12:09:52.839Z,25.83
2022-09-02T12:10:52.851Z,25.82
2022-09-02T12:11:52.813Z,26.10
2022-09-02T12:12:52.799Z,26.26
2022-09-02T12:13:52.839Z,26.26
2022-09-02T12:14:52.786Z,26.06
2022-09-02T12:15:52.863Z,25.75
2022-09-02T12:16:52.760Z,25.51
2022-09-02T12:17:52.746Z,25.45
2022-09-02T12:18:52.732Z,25.70
2022-09-02T12:19:52.762Z,25.98
2022-09-02T12:20:52.716Z,26.10
2022-09-02T12:21:52.753Z,25.92
2022-09-02T12:22:52.708Z,25.77
2022-09-02T12:23:52.689Z,25.58
2022-09-02T12:24:52.714Z,25.51
2022-09-02T12:25:52.669Z,25.43
2022-09-02T12:26:52.683Z,25.27
2022-09-02T12:27:52.765Z,25.03
2022-09-02T12:28:52.629Z,24.81
2022-09-02T12:29:52.617Z,24.67
2022-09-02T12:30:52.600Z,24.50
2022-09-02T12:31:52.670Z,24.61
2022-09-02T12:32:52.594Z,24.91
2022-09-02T12:33:52.575Z,25.21
2022-09-02T12:34:52.569Z,25.32
2022-09-02T12:35:52.547Z,25.43
2022-09-02T12:36:52.553Z,25.39
2022-09-02T12:37:53.802Z,25.51
2022-09-02T12:38:52.531Z,25.60
2022-09-02T12:39:52.509Z,25.52
2022-09-02T12:40:52.605Z,25.61
2022-09-02T12:41:52.488Z,25.62
2022-09-02T12:42:52.484Z,25.76
2022-09-02T12:43:52.485Z,25.98
2022-09-02T12:44:52.454Z,26.13
2022-09-02T12:45:52.456Z,26.20
2022-09-02T12:46:52.480Z,26.07
2022-09-02T12:47:52.443Z,25.94
2022-09-02T12:48:52.425Z,25.98
2022-09-02T12:49:52.407Z,25.73
2022-09-02T12:50:52.396Z,25.58
2022-09-02T12:51:52.376Z,25.43
2022-09-02T12:52:52.405Z,25.18
2022-09-02T12:53:52.364Z,25.05
2022-09-02T12:54:52.362Z,24.95
2022-09-02T12:55:52.337Z,24.76
2022-09-02T12:56:52.326Z,24.64